Time;durP1;ratioP1;P1;durP2;ratioP2;P2;SDS_P1;SDS_P2;PMS_P1;PMS_P2;Temp;Humidity;BMP_temperature;BMP_pressure;BME280_temperature;BME280_humidity;BME280_pressure;Samples;Min_cycle;Max_cycle;Signal;HPM_P1;HPM_P2
2021/08/30 00:00:57;;;;;;;5.13;3.70;;;12.80;78.30;;;12.26;65.31;94636.31;5073198;28;20218;-80
2021/08/30 00:03:24;;;;;;;5.85;3.60;;;12.90;78.40;;;12.27;65.49;94644.00;5073300;28;20202;-80
2021/08/30 00:05:52;;;;;;;4.22;3.85;;;12.70;78.20;;;12.26;65.56;94636.31;5039847;28;20254;-80
2021/08/30 00:08:19;;;;;;;4.45;4.05;;;12.80;78.40;;;12.25;65.76;94638.13;5036338;28;20633;-81
2021/08/30 00:10:50;;;;;;;3.75;3.45;;;12.70;78.40;;;12.23;65.67;94639.34;5069882;28;20230;-80
2021/08/30 00:13:17;;;;;;;3.97;3.58;;;12.70;78.40;;;12.20;66.13;94643.22;5070061;28;20205;-81
2021/08/30 00:15:44;;;;;;;4.45;4.05;;;12.70;78.60;;;12.20;66.15;94637.94;5062673;28;20238;-80
2021/08/30 00:18:12;;;;;;;4.43;4.03;;;12.70;78.70;;;12.21;66.07;94642.19;5040323;28;20207;-80
2021/08/30 00:20:39;;;;;;;4.28;3.88;;;12.80;78.90;;;12.21;66.35;94638.78;5072956;28;20297;-80
2021/08/30 00:23:07;;;;;;;4.43;3.58;;;12.70;78.80;;;12.22;66.16;94648.25;5056598;28;20196;-79
2021/08/30 00:25:34;;;;;;;3.95;3.58;;;12.70;78.80;;;12.20;66.40;94639.78;5055680;28;20766;-79
2021/08/30 00:28:01;;;;;;;4.28;3.88;;;12.60;78.80;;;12.20;66.44;94637.16;5073337;28;20223;-81
2021/08/30 00:30:28;;;;;;;4.20;3.80;;;12.70;79.00;;;12.15;66.30;94632.50;5056234;28;20226;-80
2021/08/30 00:32:55;;;;;;;4.55;4.00;;;12.70;79.00;;;12.17;66.45;94631.28;5073105;28;20236;-80
2021/08/30 00:35:23;;;;;;;4.72;3.70;;;12.60;79.00;;;12.15;65.69;94632.50;5062201;28;20318;-81
2021/08/30 00:37:50;;;;;;;4.00;3.70;;;12.70;79.00;;;12.14;66.25;94631.69;5056448;28;20209;-80
2021/08/30 00:40:17;;;;;;;4.35;3.95;;;12.60;78.90;;;12.16;66.22;94637.56;5072887;28;20211;-80
2021/08/30 00:42:45;;;;;;;4.57;4.07;;;12.60;78.90;;;12.12;66.44;94628.47;5072734;28;20195;-79
2021/08/30 00:45:15;;;;;;;3.80;3.50;;;12.60;79.10;;;12.16;66.12;94634.94;5071802;28;20252;-80
2021/08/30 00:47:44;;;;;;;4.10;3.65;;;12.60;79.20;;;12.15;66.05;94635.94;5055897;28;20226;-80
2021/08/30 00:50:15;;;;;;;4.30;3.90;;;12.60;79.20;;;12.13;66.16;94629.28;5056238;28;20264;-80
2021/08/30 00:52:43;;;;;;;4.60;4.20;;;12.60;79.10;;;12.13;67.07;94634.53;5072173;28;20343;-81
2021/08/30 00:55:15;;;;;;;4.65;4.03;;;12.70;79.50;;;12.14;66.49;94636.94;5072413;28;20219;-80
2021/08/30 00:57:43;;;;;;;5.47;4.22;;;12.60;79.40;;;12.13;66.73;94639.78;5055915;28;20297;-80
2021/08/30 01:00:12;;;;;;;3.60;3.30;;;12.60;79.40;;;12.10;66.35;94642.84;5072526;28;20310;-80
2021/08/30 01:02:42;;;;;;;3.83;3.50;;;12.60;79.30;;;12.12;66.46;94643.44;5072223;28;20198;-80
2021/08/30 01:05:15;;;;;;;3.60;3.30;;;12.60;79.30;;;12.06;66.79;94633.75;5055245;28;20692;-80
2021/08/30 01:08:05;;;;;;;4.28;3.88;;;12.60;79.60;;;12.09;66.81;94644.66;5055814;28;20302;-80
2021/08/30 01:10:55;;;;;;;4.60;4.20;;;12.60;79.70;;;12.07;66.62;94645.88;5039051;28;20239;-80
2021/08/30 01:13:34;;;;;;;6.22;4.05;;;12.60;79.80;;;12.07;66.75;94640.63;5071710;28;20660;-80
2021/08/30 01:16:07;;;;;;;4.25;3.85;;;12.60;79.70;;;12.06;66.74;94645.09;5055746;28;20250;-81
2021/08/30 01:18:36;;;;;;;5.07;3.95;;;12.50;80.30;;;12.05;67.41;94642.66;5055441;28;20262;-80
2021/08/30 01:21:24;;;;;;;4.55;4.15;;;12.60;79.60;;;12.04;67.18;94647.09;5071746;28;20226;-81
2021/08/30 01:24:02;;;;;;;4.85;3.92;;;12.60;80.00;;;12.04;67.31;94644.47;5059191;28;20691;-80
2021/08/30 01:26:56;;;;;;;4.45;4.05;;;12.50;79.90;;;12.04;67.68;94633.97;5038720;28;20265;-80
2021/08/30 01:29:37;;;;;;;5.90;3.80;;;12.60;81.10;;;12.07;67.48;94636.19;5055063;28;20219;-80
2021/08/30 01:32:28;;;;;;;4.55;4.03;;;12.60;80.00;;;12.05;67.24;94634.75;5071628;28;20198;-81
2021/08/30 01:34:58;;;;;;;4.28;3.88;;;12.50;80.10;;;12.05;67.30;94637.38;5067364;28;20187;-80
2021/08/30 01:37:25;;;;;;;3.85;3.55;;;12.50;79.90;;;12.07;67.29;94640.63;5071562;28;20656;-80
2021/08/30 01:39:54;;;;;;;4.88;3.92;;;12.50;79.80;;;12.06;67.04;94633.75;5051595;28;20281;-79
2021/08/30 01:42:22;;;;;;;4.28;3.88;;;12.60;79.80;;;12.06;66.82;94639.00;5035066;28;20696;-80
2021/08/30 01:44:50;;;;;;;4.15;3.72;;;12.50;79.70;;;12.05;67.12;94634.75;5051582;28;20207;-80
2021/08/30 01:47:17;;;;;;;4.20;3.80;;;12.50;79.70;;;12.03;67.07;94631.56;5071608;28;20312;-80
2021/08/30 01:49:45;;;;;;;4.22;3.83;;;12.60;79.80;;;11.97;67.04;94625.28;5054796;28;20740;-80
2021/08/30 01:52:12;;;;;;;4.55;3.72;;;12.50;79.80;;;12.03;66.82;94631.56;5038374;28;20238;-81
2021/08/30 01:54:40;;;;;;;4.03;3.63;;;12.50;79.70;;;12.01;66.63;94642.25;5054200;28;20760;-80
2021/08/30 01:57:08;;;;;;;3.97;3.58;;;12.50;79.60;;;12.00;66.52;94640.66;5072974;28;20189;-79
2021/08/30 02:02:21;;;;;;;3.80;3.40;;;12.50;79.60;;;11.98;66.75;94640.06;5073724;28;20274;-81
2021/08/30 02:04:48;;;;;;;3.50;3.05;;;12.50;79.60;;;11.95;66.51;94640.41;5071114;28;20195;-81
2021/08/30 02:07:15;;;;;;;3.50;3.20;;;12.40;79.40;;;11.94;66.35;94633.56;5054743;28;20317;-80
2021/08/30 02:09:43;;;;;;;3.95;3.65;;;12.50;79.50;;;11.91;66.20;94626.88;5054028;28;20199;-80
2021/08/30 02:12:10;;;;;;;4.18;3.45;;;12.40;79.40;;;11.89;66.06;94636.81;5054280;28;20210;-80
2021/08/30 02:14:38;;;;;;;3.28;2.88;;;12.40;79.20;;;11.80;65.75;94627.53;5071112;28;20195;-81
2021/08/30 02:17:11;;;;;;;3.63;3.10;;;12.40;79.10;;;11.77;65.82;94630.59;5071019;28;20214;-81
2021/08/30 02:19:54;;;;;;;3.20;2.90;;;12.40;79.10;;;11.65;65.44;94630.41;5054435;28;20199;-81
2021/08/30 02:22:39;;;;;;;3.15;2.85;;;12.30;79.10;;;11.60;65.35;94641.53;5088004;28;20230;-81
2021/08/30 02:25:13;;;;;;;3.00;2.75;;;12.30;79.00;;;11.52;65.57;94631.22;5070831;28;20215;-80
2021/08/30 02:28:11;;;;;;;4.15;3.30;;;12.20;78.60;;;11.38;65.63;94625.19;5037897;28;20321;-81
2021/08/30 02:30:40;;;;;;;2.88;2.67;;;12.10;78.80;;;11.34;65.50;94627.41;5046429;28;20222;-80
2021/08/30 02:33:12;;;;;;;4.45;2.80;;;12.00;78.20;;;11.29;65.49;94631.66;5054203;28;20669;-81
2021/08/30 02:35:43;;;;;;;2.83;2.63;;;11.90;78.50;;;11.19;65.54;94618.94;5054096;28;20245;-80
2021/08/30 02:38:13;;;;;;;2.90;2.65;;;11.90;78.40;;;11.16;65.53;94619.34;5054531;28;20188;-80
2021/08/30 02:40:42;;;;;;;3.47;2.92;;;11.80;78.40;;;11.08;65.70;94617.72;5054163;28;20290;-81
2021/08/30 02:43:10;;;;;;;3.50;2.97;;;11.80;78.50;;;11.09;65.89;94626.41;5070296;28;20188;-79
2021/08/30 02:45:39;;;;;;;4.95;3.05;;;11.70;78.60;;;11.07;65.98;94623.19;5070960;28;20238;-80
2021/08/30 02:48:07;;;;;;;3.45;3.15;;;11.70;78.80;;;11.06;65.91;94625.00;5034242;28;20227;-81
2021/08/30 02:50:35;;;;;;;3.72;3.42;;;11.70;78.90;;;11.04;66.31;94614.69;5033878;28;20227;-80
2021/08/30 02:53:03;;;;;;;3.42;3.13;;;11.60;79.00;;;11.08;66.32;94620.34;5044013;28;20214;-80
2021/08/30 02:55:30;;;;;;;4.00;3.60;;;11.60;79.20;;;11.05;66.64;94620.75;5070762;28;20217;-80
2021/08/30 02:57:59;;;;;;;3.85;3.20;;;11.60;79.40;;;11.11;66.56;94633.06;5070965;28;20559;-80
2021/08/30 03:00:27;;;;;;;3.60;3.22;;;11.60;79.50;;;11.13;66.50;94622.38;5037532;28;20219;-80
2021/08/30 03:02:58;;;;;;;3.33;3.03;;;11.60;79.40;;;11.13;66.18;94625.81;5050200;28;20242;-80
2021/08/30 03:05:26;;;;;;;3.33;2.90;;;11.60;79.40;;;11.10;66.20;94618.34;5034301;28;20228;-79
2021/08/30 03:07:55;;;;;;;3.72;3.35;;;11.60;79.40;;;11.14;66.24;94619.53;5033890;28;20224;-80
2021/08/30 03:10:22;;;;;;;4.97;3.72;;;11.70;79.50;;;11.11;66.19;94611.25;5047487;28;20323;-80
2021/08/30 03:12:53;;;;;;;3.60;3.30;;;11.60;79.50;;;11.15;66.32;94617.75;5067775;28;20204;-79
2021/08/30 03:15:24;;;;;;;3.20;2.90;;;11.70;79.70;;;11.14;66.45;94616.13;5053876;28;20773;-80
2021/08/30 03:17:52;;;;;;;3.50;3.20;;;11.60;79.70;;;11.09;66.30;94608.06;5070631;28;20278;-79
2021/08/30 03:20:24;;;;;;;3.63;3.17;;;11.60;79.50;;;11.09;66.04;94614.09;5053930;28;20294;-81
2021/08/30 03:22:52;;;;;;;3.47;3.03;;;11.60;79.50;;;11.09;66.33;94614.09;5050507;28;20738;-80
2021/08/30 03:25:27;;;;;;;3.30;3.00;;;11.60;79.50;;;11.09;66.16;94621.16;5067180;28;20215;-80
2021/08/30 03:27:56;;;;;;;4.38;2.88;;;11.60;79.70;;;11.08;66.58;94620.34;5070277;28;20681;-79
2021/08/30 03:30:24;;;;;;;4.43;3.15;;;11.60;79.50;;;11.07;66.79;94610.06;5053770;28;20222;-79
2021/08/30 03:32:52;;;;;;;3.67;3.20;;;11.60;79.70;;;11.09;66.49;94613.28;5056962;28;20657;-79
2021/08/30 03:35:22;;;;;;;3.58;3.28;;;11.70;79.90;;;11.10;66.84;94614.91;5073604;28;20222;-79
2021/08/30 03:37:49;;;;;;;3.80;3.40;;;11.60;80.70;;;11.10;67.05;94613.09;5057534;28;20203;-79
2021/08/30 03:40:19;;;;;;;3.63;3.33;;;11.60;79.90;;;11.12;67.23;94616.31;5065932;28;20590;-79
2021/08/30 03:42:48;;;;;;;3.75;3.35;;;11.60;80.00;;;11.15;67.16;94615.13;5053600;28;20254;-79
2021/08/30 03:45:16;;;;;;;4.25;3.25;;;11.60;80.00;;;11.15;67.23;94626.41;5037045;28;20602;-79
2021/08/30 03:47:43;;;;;;;3.60;3.30;;;11.60;79.90;;;11.15;67.11;94621.16;5037036;28;20666;-79
2021/08/30 03:50:13;;;;;;;3.58;3.28;;;11.60;80.00;;;11.16;67.28;94617.53;5053488;28;20207;-79
2021/08/30 03:52:42;;;;;;;3.42;3.13;;;11.60;80.10;;;11.18;66.91;94612.06;5036888;28;20202;-79
2021/08/30 03:55:11;;;;;;;3.55;3.10;;;11.70;80.00;;;11.16;66.96;94620.16;5053451;28;20214;-78
2021/08/30 03:57:38;;;;;;;3.63;3.25;;;11.60;79.90;;;11.18;66.96;94617.31;5036025;28;20675;-79
2021/08/30 04:00:09;;;;;;;3.30;3.00;;;11.70;80.00;;;11.17;66.67;94620.97;5034248;28;20577;-80
2021/08/30 04:02:40;;;;;;;3.25;2.95;;;11.60;80.00;;;11.11;66.62;94612.09;5046530;28;20210;-79
2021/08/30 04:05:09;;;;;;;3.72;3.00;;;11.70;80.00;;;11.13;66.36;94617.13;5039395;28;20222;-79
2021/08/30 04:07:39;;;;;;;3.05;2.75;;;11.60;79.80;;;11.11;67.08;94617.34;5055127;28;20254;-80
2021/08/30 04:10:06;;;;;;;3.20;2.90;;;11.70;80.00;;;11.09;67.19;94615.91;5071472;28;20227;-79
2021/08/30 04:12:37;;;;;;;3.30;3.00;;;11.60;79.90;;;11.13;67.09;94619.75;5055169;28;20341;-80
2021/08/30 04:15:05;;;;;;;3.25;2.92;;;11.60;80.00;;;11.13;67.11;94625.81;5054271;28;20215;-81
2021/08/30 04:17:33;;;;;;;3.22;2.90;;;11.60;80.00;;;11.13;67.01;94625.00;5055885;28;20210;-80
2021/08/30 04:20:00;;;;;;;3.97;2.78;;;11.60;80.00;;;11.13;66.77;94631.06;5037602;28;20221;-80
2021/08/30 04:22:27;;;;;;;2.85;2.50;;;11.60;80.00;;;11.10;66.48;94620.97;5055527;28;20268;-80
2021/08/30 04:24:54;;;;;;;3.38;2.80;;;11.60;79.80;;;11.09;66.23;94629.03;5072222;28;20207;-80
2021/08/30 04:27:21;;;;;;;2.80;2.60;;;11.60;79.60;;;11.00;66.20;94626.59;5056265;28;20215;-80
2021/08/30 04:29:49;;;;;;;2.60;2.40;;;11.50;79.40;;;10.97;66.25;94626.22;5072577;28;20202;-80
2021/08/30 04:32:16;;;;;;;2.70;2.50;;;11.50;79.20;;;10.91;66.47;94634.88;5040022;28;20195;-79
2021/08/30 04:34:44;;;;;;;2.40;2.03;;;11.50;79.20;;;10.81;66.29;94628.19;5056382;28;20199;-80
2021/08/30 04:37:11;;;;;;;2.92;2.50;;;11.50;79.10;;;10.77;66.16;94631.44;5072433;28;20635;-80
2021/08/30 04:39:38;;;;;;;2.30;2.10;;;11.40;79.10;;;10.71;66.22;94630.41;5055445;28;20198;-80
2021/08/30 04:42:05;;;;;;;2.53;2.33;;;11.40;79.10;;;10.72;66.12;94638.09;5072781;28;20657;-80
2021/08/30 04:44:33;;;;;;;3.45;2.15;;;11.30;79.10;;;10.69;66.28;94642.91;5072585;28;20187;-81
2021/08/30 04:47:01;;;;;;;3.57;2.13;;;11.30;79.10;;;10.67;66.42;94637.88;5056087;28;20224;-80
2021/08/30 04:49:28;;;;;;;2.53;2.33;;;11.30;79.20;;;10.68;66.16;94636.88;5072281;28;20207;-80
2021/08/30 04:51:56;;;;;;;2.80;2.60;;;11.20;79.20;;;10.67;65.97;94640.50;5039297;28;20223;-81
2021/08/30 04:54:23;;;;;;;3.75;2.63;;;11.20;79.30;;;10.68;66.16;94639.50;5055039;28;20195;-81
2021/08/30 04:56:50;;;;;;;2.83;2.63;;;11.20;79.40;;;10.70;66.28;94634.03;5055083;28;20239;-80
2021/08/30 04:59:17;;;;;;;3.42;2.60;;;11.20;79.50;;;10.74;66.16;94637.88;5052562;28;20305;-82
2021/08/30 05:01:45;;;;;;;2.90;2.67;;;11.20;79.70;;;10.72;66.42;94634.66;5070428;28;20309;-80
2021/08/30 05:04:12;;;;;;;2.80;2.60;;;11.20;79.80;;;10.83;66.35;94641.13;5068629;28;20202;-81
2021/08/30 05:06:39;;;;;;;2.58;2.38;;;11.20;79.90;;;10.87;66.56;94635.28;5069152;28;20233;-81
2021/08/30 05:09:07;;;;;;;3.22;2.72;;;11.30;80.10;;;10.95;66.84;94633.47;5052660;28;20223;-81
2021/08/30 05:11:37;;;;;;;3.95;3.30;;;11.30;80.30;;;11.04;67.26;94634.88;5069493;28;20374;-80
2021/08/30 05:14:05;;;;;;;3.25;2.95;;;11.40;81.00;;;11.17;67.69;94637.53;5053079;28;20213;-81
2021/08/30 05:16:32;;;;;;;3.67;3.38;;;11.40;81.10;;;11.30;68.19;94635.91;5053420;28;20325;-80
2021/08/30 05:18:59;;;;;;;3.50;3.20;;;11.50;81.50;;;11.45;68.33;94646.19;5059467;28;20200;-81
2021/08/30 05:21:26;;;;;;;3.78;3.47;;;11.60;81.70;;;11.60;68.38;94648.59;5077336;28;20294;-80
2021/08/30 05:23:53;;;;;;;4.18;3.17;;;11.70;81.90;;;11.69;68.22;94636.84;5070267;28;20205;-81
2021/08/30 05:26:20;;;;;;;3.83;3.42;;;11.80;82.10;;;11.84;67.73;94640.06;5071824;28;20246;-81
2021/08/30 05:28:47;;;;;;;5.22;3.60;;;11.90;82.10;;;11.95;67.69;94638.63;5070801;28;20237;-80
2021/08/30 05:31:15;;;;;;;3.67;3.38;;;12.00;82.10;;;12.05;67.31;94634.75;5053877;28;20238;-81
2021/08/30 05:33:42;;;;;;;3.78;2.85;;;12.10;82.00;;;12.13;66.80;94635.34;5070888;28;20194;-81
2021/08/30 05:36:09;;;;;;;3.97;3.05;;;12.20;82.00;;;12.21;66.99;94638.78;5069715;28;20218;-81
2021/08/30 05:38:36;;;;;;;4.88;2.90;;;12.30;81.90;;;12.27;67.10;94638.72;5054905;28;20195;-81
2021/08/30 05:41:04;;;;;;;3.75;3.42;;;12.40;81.80;;;12.35;67.00;94642.94;5070247;28;20630;-80
2021/08/30 05:43:31;;;;;;;3.80;3.40;;;12.50;81.80;;;12.41;67.38;94639.47;5087350;28;20183;-81
2021/08/30 05:45:58;;;;;;;5.00;3.33;;;12.50;81.80;;;12.48;67.35;94626.28;5070812;28;20230;-81
2021/08/30 05:48:26;;;;;;;4.35;3.40;;;12.60;81.80;;;12.55;67.41;94627.06;5054699;28;20249;-81
2021/08/30 05:50:53;;;;;;;3.40;3.10;;;12.70;81.90;;;12.63;67.38;94623.38;5054284;28;20218;-80
2021/08/30 05:53:20;;;;;;;4.03;2.75;;;12.70;81.90;;;12.76;67.33;94633.03;5071255;28;20200;-81
2021/08/30 05:55:47;;;;;;;2.97;2.50;;;12.80;81.90;;;12.83;66.98;94633.78;5054732;28;20215;-80
2021/08/30 05:58:14;;;;;;;4.28;2.67;;;12.90;82.00;;;12.90;66.82;94631.09;5050543;28;20209;-81
2021/08/30 06:00:41;;;;;;;3.22;2.95;;;13.00;82.00;;;13.01;66.77;94629.59;5038726;28;20700;-81
2021/08/30 06:03:09;;;;;;;3.83;3.53;;;13.10;82.00;;;13.09;67.11;94638.03;5070045;28;20278;-81
2021/08/30 06:05:37;;;;;;;3.97;3.28;;;13.10;82.00;;;13.19;66.97;94631.50;5055355;28;20306;-80
2021/08/30 06:08:04;;;;;;;2.90;2.70;;;13.20;82.00;;;13.25;66.45;94630.66;5041099;28;20214;-81
2021/08/30 06:10:32;;;;;;;3.25;2.95;;;13.30;81.90;;;13.34;66.69;94633.81;5069659;28;20305;-80
2021/08/30 06:13:00;;;;;;;2.90;2.70;;;13.40;81.90;;;13.40;67.08;94631.16;5054238;28;20203;-81
2021/08/30 06:15:27;;;;;;;3.25;2.95;;;13.40;81.80;;;13.45;66.48;94630.50;5049267;28;20269;-80
2021/08/30 06:17:54;;;;;;;3.45;3.10;;;13.50;81.70;;;13.53;66.64;94621.53;5049597;28;20621;-78
2021/08/30 06:20:22;;;;;;;3.40;3.10;;;13.60;81.80;;;13.63;66.48;94627.09;5047721;28;20218;-80
2021/08/30 06:22:50;;;;;;;3.33;3.03;;;13.70;81.90;;;13.70;66.47;94624.41;5048577;28;20218;-78
2021/08/30 06:25:18;;;;;;;3.38;3.05;;;13.80;82.00;;;13.75;66.24;94619.28;5047258;28;20220;-78
2021/08/30 06:27:57;;;;;;;3.10;2.90;;;13.80;81.90;;;13.89;66.47;94626.03;5066055;28;20213;-78
2021/08/30 06:30:24;;;;;;;3.30;3.00;;;13.90;81.90;;;13.98;66.61;94625.75;5053077;28;20582;-79
2021/08/30 06:32:52;;;;;;;3.38;3.08;;;14.00;81.90;;;14.02;66.60;94625.06;5053083;28;20194;-78
2021/08/30 06:35:20;;;;;;;3.13;2.83;;;14.10;81.90;;;14.15;66.41;94631.22;5050539;28;20219;-79
2021/08/30 06:37:47;;;;;;;3.20;2.92;;;14.20;82.00;;;14.23;66.81;94628.28;5068345;28;20233;-79
2021/08/30 06:40:14;;;;;;;3.92;3.22;;;14.20;81.90;;;14.30;66.50;94634.28;5053666;28;20223;-78
2021/08/30 06:42:42;;;;;;;3.80;3.28;;;14.30;81.80;;;14.37;66.07;94629.72;5052788;28;20290;-79
2021/08/30 06:45:10;;;;;;;3.70;3.40;;;14.40;81.70;;;14.44;66.00;94628.81;5051573;28;20238;-78
2021/08/30 06:47:37;;;;;;;3.63;3.05;;;14.50;81.70;;;14.45;66.16;94620.69;5051938;28;20240;-78
2021/08/30 06:50:04;;;;;;;3.53;3.20;;;14.60;81.70;;;14.60;66.31;94616.84;5070256;28;20211;-79
2021/08/30 06:52:33;;;;;;;3.40;3.10;;;14.60;81.70;;;14.68;66.40;94614.75;5069214;28;20244;-79
2021/08/30 06:55:02;;;;;;;3.22;2.92;;;14.70;81.70;;;14.76;66.00;94616.25;5044035;28;20233;-79
2021/08/30 06:57:33;;;;;;;3.33;3.03;;;14.70;81.60;;;14.83;65.83;94616.13;5053584;28;20596;-79
2021/08/30 07:00:05;;;;;;;3.88;3.58;;;14.80;81.60;;;14.88;66.09;94605.72;5050985;28;20266;-78
2021/08/30 07:02:32;;;;;;;3.83;3.30;;;14.90;81.40;;;14.89;65.49;94607.31;5072897;28;20280;-78
2021/08/30 07:04:59;;;;;;;3.97;3.35;;;15.10;81.40;;;14.97;65.75;94607.00;5070626;28;20222;-79
2021/08/30 07:07:26;;;;;;;3.80;3.50;;;15.00;81.30;;;15.02;65.88;94606.31;5053974;28;20285;-79
2021/08/30 07:09:53;;;;;;;3.50;3.20;;;15.10;81.30;;;15.14;66.30;94622.19;5071862;28;20217;-78
2021/08/30 07:12:24;;;;;;;4.13;3.80;;;15.20;81.40;;;15.22;65.52;94621.84;5053066;28;20660;-79
2021/08/30 07:14:53;;;;;;;4.20;3.80;;;15.20;81.20;;;15.27;65.31;94614.06;5063107;28;20336;-78
2021/08/30 07:17:21;;;;;;;3.85;3.42;;;15.30;81.20;;;15.35;65.35;94623.47;5058594;28;20211;-79
2021/08/30 07:19:48;;;;;;;3.75;3.45;;;15.40;81.30;;;15.39;65.26;94624.63;5049034;28;20286;-79
2021/08/30 07:22:16;;;;;;;3.15;2.70;;;15.40;81.20;;;15.51;65.56;94628.09;5047804;28;20222;-80
2021/08/30 07:24:43;;;;;;;3.03;2.83;;;15.40;81.10;;;15.54;65.31;94621.53;5041698;28;20336;-82
2021/08/30 07:27:11;;;;;;;2.85;2.65;;;15.60;81.00;;;15.63;64.97;94622.78;5056581;28;20209;-81
2021/08/30 07:29:38;;;;;;;3.10;2.72;;;15.50;81.00;;;15.73;65.29;94621.41;5053385;28;20696;-81
2021/08/30 07:32:06;;;;;;;2.85;2.65;;;15.70;81.10;;;15.83;64.56;94625.13;5051156;28;20187;-81
2021/08/30 07:34:33;;;;;;;3.38;3.08;;;15.80;80.90;;;15.93;64.70;94616.59;5056344;28;20237;-82
2021/08/30 07:37:01;;;;;;;19.67;3.15;;;15.90;81.00;;;15.99;64.73;94618.31;5035122;28;20215;-82
2021/08/30 07:39:28;;;;;;;3.13;2.83;;;15.90;80.80;;;16.10;64.52;94626.44;5071834;28;20197;-82
2021/08/30 07:41:56;;;;;;;2.70;2.47;;;16.00;80.80;;;16.16;64.20;94621.03;5055563;28;20596;-80
2021/08/30 07:44:24;;;;;;;2.72;2.53;;;16.00;80.60;;;16.19;64.49;94614.47;5038786;28;20207;-82
2021/08/30 07:46:51;;;;;;;2.80;2.60;;;16.10;80.40;;;16.29;64.42;94622.59;5054846;28;20313;-81
2021/08/30 07:49:18;;;;;;;2.80;2.60;;;16.20;80.50;;;16.38;64.46;94628.34;5055176;28;20218;-80
2021/08/30 07:51:46;;;;;;;2.70;2.50;;;16.30;80.70;;;16.46;64.20;94629.81;5056616;28;20652;-81
2021/08/30 07:54:13;;;;;;;2.90;2.60;;;16.30;80.70;;;16.59;64.71;94632.19;5039021;28;20728;-81
2021/08/30 07:56:41;;;;;;;2.90;2.70;;;16.40;80.70;;;16.68;64.33;94647.69;5056515;28;20219;-82
2021/08/30 07:59:10;;;;;;;3.10;2.65;;;16.50;80.70;;;16.74;64.36;94644.91;5089342;28;20198;-81
2021/08/30 08:01:38;;;;;;;2.78;2.58;;;16.60;80.60;;;16.86;63.88;94634.25;5072116;28;20211;-82
2021/08/30 08:04:06;;;;;;;2.67;2.42;;;16.60;80.60;;;16.93;63.71;94623.53;5037107;28;20215;-82
2021/08/30 08:06:33;;;;;;;3.15;2.83;;;16.70;80.40;;;17.06;63.75;94644.41;5059798;28;20219;-82
2021/08/30 08:09:00;;;;;;;3.15;2.70;;;16.80;80.20;;;17.14;63.16;94645.91;5046151;28;20722;-82
2021/08/30 08:11:27;;;;;;;2.90;2.70;;;16.90;80.00;;;17.26;63.80;94640.53;5056292;28;20297;-82
2021/08/30 08:13:56;;;;;;;2.53;2.33;;;16.90;80.00;;;17.43;63.68;94638.69;5039175;28;20302;-81
2021/08/30 08:16:24;;;;;;;2.67;2.47;;;17.10;80.70;;;17.64;63.65;94638.16;5056866;28;20736;-81
2021/08/30 08:18:53;;;;;;;2.67;2.47;;;17.20;80.80;;;17.88;63.56;94644.91;5088487;28;20223;-81
2021/08/30 08:21:24;;;;;;;2.33;2.13;;;17.30;80.90;;;18.03;63.05;94641.69;5055650;28;20206;-81
2021/08/30 08:23:52;;;;;;;2.60;2.40;;;17.50;79.90;;;18.13;61.74;94640.22;5072906;28;20186;-82
2021/08/30 08:26:19;;;;;;;2.58;2.38;;;17.70;80.00;;;18.20;62.26;94638.97;5055840;28;20294;-82
2021/08/30 08:28:46;;;;;;;2.28;2.08;;;17.80;79.80;;;18.30;62.28;94645.47;5072946;28;20229;-82
2021/08/30 08:31:13;;;;;;;2.30;2.10;;;17.90;79.70;;;18.36;62.38;94636.53;5039837;28;20214;-82
2021/08/30 08:33:41;;;;;;;2.25;2.05;;;18.00;79.60;;;18.51;62.70;94639.34;5056436;28;20206;-83
2021/08/30 08:36:09;;;;;;;2.50;2.30;;;18.20;80.00;;;18.73;62.33;94644.63;5056401;28;20214;-82
2021/08/30 08:38:36;;;;;;;2.42;2.22;;;18.30;80.00;;;18.93;62.13;94653.91;5072252;28;20191;-82
2021/08/30 08:41:03;;;;;;;2.97;2.05;;;18.40;79.70;;;19.12;61.88;94651.69;5056247;28;20310;-82
2021/08/30 08:43:33;;;;;;;3.17;2.28;;;18.60;79.60;;;19.34;61.17;94646.28;5056519;28;20199;-83
2021/08/30 08:46:01;;;;;;;2.42;2.22;;;18.70;79.20;;;19.53;61.59;94637.94;5055756;28;20578;-83
2021/08/30 08:48:29;;;;;;;2.10;2.00;;;18.90;79.50;;;19.77;60.64;94649.00;5039961;28;20230;-82
2021/08/30 08:50:56;;;;;;;2.55;2.35;;;19.10;79.40;;;19.93;61.33;94643.81;5039733;28;20302;-82
2021/08/30 08:53:24;;;;;;;2.40;2.20;;;19.30;79.30;;;19.97;59.53;94645.69;5072703;28;20197;-83
2021/08/30 08:55:51;;;;;;;2.40;2.20;;;19.40;78.00;;;20.00;59.27;94650.50;5052214;28;20235;-82
2021/08/30 08:58:20;;;;;;;2.72;2.53;;;19.60;77.70;;;20.00;58.93;94644.38;5019942;28;20203;-82
2021/08/30 09:01:10;;;;;;;2.47;2.28;;;19.60;76.90;;;20.04;59.39;94642.78;5035799;28;20265;-82
2021/08/30 09:03:51;;;;;;;2.05;1.90;;;19.70;76.60;;;20.17;58.69;94646.09;5020282;28;20200;-82
2021/08/30 09:06:46;;;;;;;2.35;2.15;;;19.80;76.20;;;20.31;59.23;94645.34;5050827;28;20231;-81
2021/08/30 09:09:17;;;;;;;2.40;2.20;;;19.90;76.30;;;20.43;58.96;94634.47;5040201;28;20297;-83
2021/08/30 09:11:56;;;;;;;2.63;2.42;;;20.00;77.40;;;20.66;58.65;94639.63;5072311;28;20301;-82
2021/08/30 09:14:27;;;;;;;3.20;2.20;;;20.10;76.60;;;20.88;58.99;94640.22;5072303;28;20262;-82
2021/08/30 09:17:09;;;;;;;2.55;2.35;;;20.20;76.70;;;21.16;58.42;94643.47;5055407;28;20272;-82
2021/08/30 09:19:39;;;;;;;2.50;2.30;;;20.40;76.70;;;21.34;57.07;94638.69;5055484;28;20211;-82
2021/08/30 09:22:08;;;;;;;2.25;2.05;;;20.60;76.60;;;21.45;57.25;94621.63;5053711;28;20197;-83
2021/08/30 09:24:36;;;;;;;2.35;2.10;;;20.80;76.00;;;21.59;57.50;94638.72;5037970;28;20244;-82
2021/08/30 09:27:08;;;;;;;2.55;2.35;;;20.90;76.10;;;21.67;57.34;94640.03;5055086;28;20567;-82
2021/08/30 09:29:39;;;;;;;2.08;1.98;;;21.10;75.30;;;21.71;57.14;94640.28;5051164;28;20234;-81
2021/08/30 09:32:16;;;;;;;1.92;1.73;;;21.20;75.30;;;21.73;57.25;94630.94;5054874;28;20203;-80
2021/08/30 09:34:57;;;;;;;2.10;1.90;;;21.30;75.10;;;21.78;56.80;94629.34;5054573;28;20274;-81
2021/08/30 09:37:26;;;;;;;1.95;1.85;;;21.30;74.70;;;21.83;57.12;94624.00;5055373;28;20217;-82
2021/08/30 09:40:01;;;;;;;2.05;1.95;;;21.40;74.80;;;21.83;56.82;94624.00;5054611;28;20212;-81
2021/08/30 09:42:29;;;;;;;1.80;1.70;;;21.50;74.20;;;21.81;56.95;94626.13;5055298;28;20198;-81
2021/08/30 09:45:11;;;;;;;2.08;1.98;;;21.60;74.60;;;21.75;56.21;94628.00;5054392;28;20197;-82
2021/08/30 09:47:57;;;;;;;2.90;2.03;;;21.50;73.60;;;21.63;56.17;94633.66;5054627;28;20708;-81
2021/08/30 09:50:38;;;;;;;2.00;1.90;;;21.50;73.50;;;21.48;56.10;94634.41;5053151;28;20259;-81
2021/08/30 09:53:05;;;;;;;2.33;2.13;;;21.50;72.50;;;21.29;55.88;94639.50;5055288;28;20199;-82
2021/08/30 09:55:35;;;;;;;2.30;2.10;;;21.30;72.60;;;21.11;55.88;94640.78;5071320;28;20208;-82
2021/08/30 09:58:05;;;;;;;2.10;1.90;;;21.30;72.70;;;20.96;56.19;94638.91;5037725;28;20660;-82
2021/08/30 10:00:34;;;;;;;2.00;1.90;;;21.10;72.70;;;20.83;56.13;94634.88;5071233;28;20221;-82
2021/08/30 10:03:03;;;;;;;2.30;2.10;;;21.00;72.20;;;20.72;55.93;94626.06;5054789;28;20650;-81
2021/08/30 10:05:30;;;;;;;2.08;1.98;;;20.90;72.50;;;20.68;56.28;94630.28;5071127;28;20227;-82
2021/08/30 10:08:01;;;;;;;2.03;1.92;;;20.80;72.70;;;20.67;55.85;94622.56;5053808;28;20199;-81
2021/08/30 10:10:29;;;;;;;2.38;2.17;;;20.70;72.10;;;20.79;55.71;94634.59;5054303;28;20238;-81
2021/08/30 10:12:56;;;;;;;2.05;1.92;;;20.70;73.10;;;20.86;55.80;94622.88;5054729;28;20609;-82
2021/08/30 10:15:26;;;;;;;2.15;2.00;;;20.70;73.40;;;20.99;56.17;94629.59;5053709;28;20222;-81
2021/08/30 10:17:55;;;;;;;2.50;2.30;;;20.70;73.40;;;21.08;55.73;94619.97;5063091;28;20192;-81
2021/08/30 10:20:25;;;;;;;2.63;2.42;;;20.70;73.40;;;21.23;54.85;94620.00;5054833;28;20230;-81
2021/08/30 10:23:06;;;;;;;2.78;2.58;;;20.80;72.80;;;21.43;55.12;94621.88;5053329;28;20195;-82
2021/08/30 10:25:40;;;;;;;2.45;2.25;;;21.00;72.80;;;21.65;54.73;94618.13;5071569;28;20621;-81
2021/08/30 10:28:12;;;;;;;2.47;2.20;;;21.10;73.10;;;21.90;54.46;94619.97;5071403;28;20240;-82
2021/08/30 10:30:53;;;;;;;2.70;2.50;;;21.20;72.70;;;22.09;54.49;94614.03;5070088;28;20237;-82
2021/08/30 10:33:24;;;;;;;2.50;2.30;;;21.40;72.80;;;22.27;53.82;94615.34;5054564;28;20185;-82